Time;durP1;ratioP1;P1;durP2;ratioP2;P2;SDS_P1;SDS_P2;PMS_P1;PMS_P2;Temp;Humidity;BMP_temperature;BMP_pressure;BME280_temperature;BME280_humidity;BME280_pressure;Samples;Min_cycle;Max_cycle;Signal;HPM_P1;HPM_P2
2023/07/31 00:01:59;;;;;;;4.23;1.60;;;;;;;16.54;99.43;98147.81;5056332;28;20240;-79
2023/07/31 00:04:25;;;;;;;2.97;1.53;;;;;;;16.56;99.49;98145.69;5056836;28;20201;-79
2023/07/31 00:06:51;;;;;;;3.33;1.60;;;;;;;16.50;99.75;98146.72;5056486;28;20293;-79
2023/07/31 00:09:18;;;;;;;3.63;1.73;;;;;;;16.43;98.87;98145.31;5056301;28;20233;-79
2023/07/31 00:11:44;;;;;;;3.40;1.87;;;;;;;16.38;99.95;98137.19;5055932;28;20209;-79
2023/07/31 00:14:11;;;;;;;5.40;1.73;;;;;;;16.41;100.00;98152.78;5056762;28;20221;-79
2023/07/31 00:16:37;;;;;;;2.27;1.60;;;;;;;16.43;100.00;98148.81;5056417;28;20206;-79
2023/07/31 00:19:03;;;;;;;3.57;1.57;;;;;;;16.38;98.25;98140.66;5056283;28;20565;-79
2023/07/31 00:21:30;;;;;;;5.67;1.80;;;;;;;16.36;100.00;98150.84;5056337;28;20212;-79
2023/07/31 00:23:56;;;;;;;3.00;1.83;;;;;;;16.33;100.00;98143.28;5056106;28;20204;-79
2023/07/31 00:26:22;;;;;;;3.37;1.67;;;;;;;16.32;99.43;98148.91;5055646;28;20219;-78
2023/07/31 00:28:49;;;;;;;4.90;1.60;;;;;;;16.32;100.00;98144.34;5055653;28;20713;-79
2023/07/31 00:31:15;;;;;;;1.77;1.30;;;;;;;16.25;100.00;98146.44;5058664;28;20213;-78
2023/07/31 00:33:41;;;;;;;2.67;1.60;;;;;;;16.43;98.72;98139.94;5058054;28;20229;-74
2023/07/31 00:36:08;;;;;;;4.50;1.50;;;;;;;16.32;100.00;98143.53;5056599;28;20205;-74
2023/07/31 00:38:34;;;;;;;3.53;1.50;;;;;;;16.41;100.00;98142.88;5056593;28;20229;-74
2023/07/31 00:41:00;;;;;;;4.97;1.80;;;;;;;16.31;100.00;98149.97;5056531;28;20211;-74
2023/07/31 00:43:27;;;;;;;2.90;1.60;;;;;;;16.32;100.00;98143.53;5056542;28;20205;-74
2023/07/31 00:45:53;;;;;;;4.23;1.80;;;;;;;16.32;100.00;98141.66;5056498;28;20213;-74
2023/07/31 00:48:20;;;;;;;3.30;1.40;;;;;;;16.31;100.00;98142.75;5056368;28;20225;-74
2023/07/31 00:50:46;;;;;;;2.90;1.80;;;;;;;16.29;100.00;98141.38;5056394;28;20213;-74
2023/07/31 00:53:14;;;;;;;3.43;1.57;;;;;;;16.31;100.00;98139.25;5055904;28;20626;-74
2023/07/31 00:55:41;;;;;;;6.70;1.70;;;;;;;16.32;100.00;98144.34;5055969;28;20584;-74
2023/07/31 00:58:07;;;;;;;4.53;1.70;;;;;;;16.33;100.00;98132.56;5056153;28;20209;-74
2023/07/31 01:00:33;;;;;;;4.33;1.77;;;;;;;16.29;100.00;98144.84;5056210;28;20213;-74
2023/07/31 01:03:00;;;;;;;4.60;1.93;;;;;;;16.16;100.00;98139.91;5055858;28;20209;-74
2023/07/31 01:05:58;;;;;;;4.70;1.70;;;;;;;16.12;100.00;98144.16;5056112;28;20252;-74
2023/07/31 01:08:30;;;;;;;5.93;1.50;;;;;;;16.04;100.00;98139.22;5055986;28;20233;-74
2023/07/31 01:11:03;;;;;;;4.70;1.73;;;;;;;16.04;100.00;98136.53;5055910;28;20201;-74
2023/07/31 01:13:29;;;;;;;3.30;1.47;;;;;;;15.99;100.00;98135.66;5054820;28;20214;-74
2023/07/31 01:15:56;;;;;;;3.57;1.80;;;;;;;15.94;100.00;98131.06;5055492;28;20676;-74
2023/07/31 01:18:22;;;;;;;2.23;1.60;;;;;;;16.02;100.00;98127.13;5055839;28;20268;-74
2023/07/31 01:21:01;;;;;;;3.63;1.40;;;;;;;15.99;100.00;98125.78;5055837;28;20209;-74
2023/07/31 01:23:52;;;;;;;1.73;1.50;;;;;;;15.92;100.00;98117.09;5054740;28;20208;-74
2023/07/31 01:26:27;;;;;;;2.13;1.50;;;;;;;15.99;100.00;98115.03;5055349;28;20668;-73
2023/07/31 01:29:01;;;;;;;2.20;1.60;;;;;;;16.05;100.00;98108.66;5055698;28;20224;-73
2023/07/31 01:31:30;;;;;;;4.27;1.40;;;;;;;16.06;100.00;98112.97;5055394;28;20632;-73
2023/07/31 01:34:00;;;;;;;2.30;1.60;;;;;;;16.02;100.00;98114.53;5055222;28;20235;-73
2023/07/31 01:36:27;;;;;;;2.47;1.67;;;;;;;15.95;100.00;98110.41;5055549;28;20276;-73
2023/07/31 01:38:59;;;;;;;4.37;1.97;;;;;;;15.93;100.00;98107.19;5055125;28;20596;-73
2023/07/31 01:41:25;;;;;;;5.50;2.00;;;;;;;15.94;100.00;98111.50;5054968;28;20197;-74
2023/07/31 01:43:51;;;;;;;4.20;1.83;;;;;;;15.94;100.00;98111.50;5055423;28;20600;-74
2023/07/31 01:46:18;;;;;;;2.30;1.60;;;;;;;15.87;100.00;98100.94;5055406;28;20227;-74
2023/07/31 01:48:44;;;;;;;4.40;1.80;;;;;;;15.82;100.00;98111.63;5055275;28;20226;-74
2023/07/31 01:51:10;;;;;;;2.80;1.67;;;;;;;15.82;100.00;98100.06;5054972;28;20215;-74
2023/07/31 01:53:37;;;;;;;2.70;1.63;;;;;;;15.79;100.00;98100.59;5055200;28;20229;-74
2023/07/31 01:56:03;;;;;;;2.93;1.87;;;;;;;15.82;100.00;98094.72;5054895;28;20664;-74
2023/07/31 01:58:30;;;;;;;5.17;1.43;;;;;;;15.86;100.00;98099.34;5055009;28;20225;-74
2023/07/31 02:00:56;;;;;;;3.60;1.73;;;;;;;15.84;100.00;98093.41;5054764;28;20205;-74
2023/07/31 02:03:22;;;;;;;3.57;1.67;;;;;;;15.74;100.00;98085.25;5055001;28;20224;-74
2023/07/31 02:05:50;;;;;;;4.00;1.70;;;;;;;15.74;100.00;98087.94;5055006;28;20205;-73
2023/07/31 02:08:17;;;;;;;2.90;1.60;;;;;;;15.76;100.00;98085.84;5054899;28;20229;-73
2023/07/31 02:10:43;;;;;;;3.70;1.83;;;;;;;15.77;100.00;98081.25;5054549;28;20668;-73
2023/07/31 02:13:10;;;;;;;3.53;1.63;;;;;;;15.73;100.00;98080.97;5054745;28;20216;-73
2023/07/31 02:15:36;;;;;;;2.73;1.80;;;;;;;15.73;100.00;98080.97;5054835;28;20254;-73
2023/07/31 02:18:02;;;;;;;4.53;1.80;;;;;;;15.78;100.00;98075.66;5054652;28;20575;-73
2023/07/31 02:20:29;;;;;;;5.87;2.07;;;;;;;15.84;100.00;98071.94;5054393;28;20205;-73
2023/07/31 02:22:55;;;;;;;3.00;1.77;;;;;;;15.82;100.00;98066.06;5054361;28;20220;-73
2023/07/31 02:25:21;;;;;;;4.17;1.40;;;;;;;15.86;100.00;98061.81;5054319;28;20687;-73
2023/07/31 02:27:48;;;;;;;4.43;1.90;;;;;;;15.89;100.00;98058.63;5054106;28;20220;-73
2023/07/31 02:30:14;;;;;;;3.93;1.80;;;;;;;15.89;100.00;98060.50;5054148;28;20229;-73
2023/07/31 02:32:40;;;;;;;3.17;1.67;;;;;;;15.85;100.00;98054.84;5054458;28;20237;-73
2023/07/31 02:35:07;;;;;;;2.03;1.63;;;;;;;15.90;100.00;98062.94;5054360;28;20225;-73
2023/07/31 02:37:35;;;;;;;3.57;1.80;;;;;;;15.98;100.00;98049.06;5054346;28;20201;-73
2023/07/31 02:40:02;;;;;;;3.10;1.67;;;;;;;15.93;100.00;98058.94;5054291;28;20227;-73
2023/07/31 02:42:28;;;;;;;3.23;1.70;;;;;;;15.88;100.00;98048.16;5054263;28;20209;-73
2023/07/31 02:44:55;;;;;;;5.00;1.60;;;;;;;15.77;100.00;98059.81;5054166;28;20220;-73
2023/07/31 02:47:23;;;;;;;3.20;1.60;;;;;;;15.85;100.00;98045.97;5054221;28;20255;-73
2023/07/31 02:49:49;;;;;;;1.97;1.73;;;;;;;15.82;100.00;98041.09;5054089;28;20229;-73
2023/07/31 02:52:15;;;;;;;5.07;1.60;;;;;;;15.93;100.00;98040.16;5054067;28;20205;-73
2023/07/31 02:54:42;;;;;;;5.37;1.67;;;;;;;15.97;100.00;98044.75;5053414;28;20225;-74
2023/07/31 02:57:08;;;;;;;4.40;1.83;;;;;;;15.89;100.00;98037.19;5053978;28;20205;-74
2023/07/31 02:59:34;;;;;;;3.87;1.53;;;;;;;15.89;100.00;98031.00;5053765;28;20225;-73
2023/07/31 03:02:01;;;;;;;3.77;1.53;;;;;;;15.94;100.00;98034.56;5053803;28;20208;-73
2023/07/31 03:04:27;;;;;;;2.57;1.57;;;;;;;15.97;100.00;98033.22;5053751;28;20213;-73
2023/07/31 03:06:53;;;;;;;3.10;1.80;;;;;;;15.89;100.00;98034.50;5053851;28;20659;-73
2023/07/31 03:09:20;;;;;;;5.33;1.53;;;;;;;15.89;100.00;98039.88;5053392;28;20716;-73
2023/07/31 03:11:46;;;;;;;4.30;1.70;;;;;;;15.90;100.00;98035.28;5053838;28;20209;-73
2023/07/31 03:14:12;;;;;;;2.67;1.60;;;;;;;15.86;100.00;98037.69;5053683;28;20251;-73
2023/07/31 03:16:39;;;;;;;1.57;1.47;;;;;;;15.89;100.00;98041.72;5053661;28;20208;-73
2023/07/31 03:19:05;;;;;;;3.47;1.90;;;;;;;15.77;100.00;98041.06;5053560;28;20221;-73
2023/07/31 03:21:31;;;;;;;4.57;1.87;;;;;;;15.81;100.00;98040.31;5053569;28;20314;-73
2023/07/31 03:23:58;;;;;;;4.37;1.63;;;;;;;15.86;100.00;98029.63;5053456;28;20201;-73
2023/07/31 03:26:24;;;;;;;5.90;1.90;;;;;;;15.82;100.00;98036.56;5053290;28;20217;-73
2023/07/31 03:28:50;;;;;;;3.03;1.83;;;;;;;15.89;100.00;98031.00;5052948;28;20233;-73
2023/07/31 03:31:17;;;;;;;2.23;1.60;;;;;;;15.84;100.00;98033.63;5052943;28;20213;-73
2023/07/31 03:33:43;;;;;;;4.13;1.80;;;;;;;15.79;100.00;98036.25;5053236;28;20229;-73
2023/07/31 03:36:09;;;;;;;5.93;1.60;;;;;;;15.76;100.00;98037.59;5052900;28;20213;-73
2023/07/31 03:38:36;;;;;;;4.17;1.90;;;;;;;15.77;100.00;98033.00;5053168;28;20225;-73
2023/07/31 03:41:02;;;;;;;3.37;1.80;;;;;;;15.78;100.00;98034.66;5052995;28;20204;-73
2023/07/31 03:43:29;;;;;;;3.50;1.77;;;;;;;15.80;100.00;98054.78;5052803;28;20227;-73
2023/07/31 03:45:55;;;;;;;3.93;1.80;;;;;;;15.80;100.00;98040.56;5053140;28;20209;-73
2023/07/31 03:48:21;;;;;;;5.37;1.90;;;;;;;15.79;100.00;98037.06;5052833;28;20225;-73
2023/07/31 03:50:48;;;;;;;3.33;1.60;;;;;;;15.77;100.00;98035.69;5053140;28;20209;-73
2023/07/31 03:53:14;;;;;;;3.63;1.73;;;;;;;15.91;100.00;98039.59;5053919;28;20201;-74
2023/07/31 03:55:40;;;;;;;5.07;1.33;;;;;;;16.04;100.00;98045.38;5053071;28;20224;-74
2023/07/31 03:58:07;;;;;;;2.80;1.40;;;;;;;16.10;100.00;98038.97;5053036;28;20209;-74
2023/07/31 04:00:33;;;;;;;2.40;1.60;;;;;;;16.07;100.00;98044.06;5052877;28;20209;-74
2023/07/31 04:03:00;;;;;;;2.77;1.80;;;;;;;16.12;100.00;98044.91;5052928;28;20300;-74
2023/07/31 04:05:26;;;;;;;2.80;1.67;;;;;;;16.20;100.00;98049.00;5056499;28;20207;-74
2023/07/31 04:07:52;;;;;;;2.90;1.97;;;;;;;16.28;99.70;98043.97;5057041;28;20215;-74
2023/07/31 04:10:19;;;;;;;3.33;1.50;;;;;;;16.34;99.55;98044.84;5059772;28;20228;-78
2023/07/31 04:12:45;;;;;;;4.03;1.53;;;;;;;16.40;98.12;98038.47;5068588;28;20205;-79
2023/07/31 04:15:11;;;;;;;2.90;1.53;;;;;;;16.48;96.70;98043.38;5060173;28;20225;-78
2023/07/31 04:17:38;;;;;;;3.07;1.40;;;;;;;16.56;97.42;98037.53;5059561;28;20209;-79
2023/07/31 04:20:05;;;;;;;5.90;1.80;;;;;;;16.54;95.72;98040.47;5064541;28;20281;-78
2023/07/31 04:22:31;;;;;;;1.83;1.40;;;;;;;16.53;95.81;98038.03;5078231;28;20211;-78
2023/07/31 04:24:57;;;;;;;3.57;1.60;;;;;;;16.55;96.86;98036.72;5080443;28;20219;-78
2023/07/31 04:27:24;;;;;;;2.73;1.60;;;;;;;16.61;96.16;98027.63;5078544;28;20675;-78
2023/07/31 04:29:50;;;;;;;3.53;1.77;;;;;;;16.63;94.87;98033.56;5062325;28;20228;-78
2023/07/31 04:32:17;;;;;;;2.83;1.50;;;;;;;16.70;94.94;98027.97;5061622;28;20244;-79
2023/07/31 04:34:44;;;;;;;4.40;1.77;;;;;;;16.66;95.87;98033.06;5078095;28;20270;-78
2023/07/31 04:37:11;;;;;;;2.83;1.47;;;;;;;16.73;94.68;98022.88;5079169;28;20207;-78
2023/07/31 04:39:37;;;;;;;4.27;1.70;;;;;;;16.80;94.73;98023.47;5062356;28;20219;-78
2023/07/31 04:42:03;;;;;;;2.43;1.70;;;;;;;16.79;95.71;98027.22;5066609;28;20196;-78
2023/07/31 04:44:30;;;;;;;5.13;1.80;;;;;;;16.75;96.43;98034.19;5066199;28;20215;-79
2023/07/31 04:46:56;;;;;;;3.40;1.90;;;;;;;16.79;95.09;98037.94;5058957;28;20205;-79
2023/07/31 04:49:23;;;;;;;4.10;1.70;;;;;;;16.83;96.76;98036.38;5058840;28;20229;-78
2023/07/31 04:51:49;;;;;;;2.63;1.50;;;;;;;16.87;96.73;98032.09;5065045;28;20207;-78
2023/07/31 04:54:15;;;;;;;3.40;1.70;;;;;;;16.92;94.30;98026.75;5074047;28;20299;-78
2023/07/31 04:56:42;;;;;;;3.07;1.70;;;;;;;16.96;97.25;98037.81;5078186;28;20244;-79
2023/07/31 04:59:08;;;;;;;2.77;1.77;;;;;;;16.99;96.49;98027.34;5075783;28;20230;-79
2023/07/31 05:01:35;;;;;;;4.13;1.90;;;;;;;16.96;97.24;98033.22;5075968;28;20406;-79
2023/07/31 05:04:01;;;;;;;3.43;1.87;;;;;;;17.01;96.77;98025.19;5077014;28;20215;-79
2023/07/31 05:06:27;;;;;;;1.97;1.30;;;;;;;16.99;97.29;98032.72;5076980;28;20677;-79
2023/07/31 05:08:54;;;;;;;3.33;1.80;;;;;;;17.05;95.59;98025.50;5076139;28;20568;-79
2023/07/31 05:11:20;;;;;;;2.80;1.73;;;;;;;17.10;99.04;98018.25;5076925;28;20204;-79
2023/07/31 05:13:46;;;;;;;3.60;1.60;;;;;;;17.02;98.86;98026.84;5079678;28;20548;-79
2023/07/31 05:16:13;;;;;;;3.73;1.90;;;;;;;17.06;99.00;98016.38;5078909;28;20240;-79
2023/07/31 05:18:39;;;;;;;3.03;1.60;;;;;;;17.00;99.31;98014.72;5078851;28;20240;-74
2023/07/31 05:21:05;;;;;;;3.83;1.87;;;;;;;17.03;99.19;98017.72;5075738;28;20204;-74
2023/07/31 05:23:32;;;;;;;3.43;1.93;;;;;;;16.98;99.31;98014.19;5075100;28;20679;-74
2023/07/31 05:26:06;;;;;;;4.93;1.77;;;;;;;16.99;99.08;98019.28;5075189;28;20295;-74
2023/07/31 05:28:33;;;;;;;3.97;1.80;;;;;;;16.97;100.00;98020.63;5075294;28;20699;-74
2023/07/31 05:31:01;;;;;;;5.17;2.10;;;;;;;17.07;100.00;98034.94;5075528;28;20211;-75
2023/07/31 05:33:27;;;;;;;2.93;1.70;;;;;;;17.07;99.02;98024.19;5075200;28;20200;-74
2023/07/31 05:35:54;;;;;;;2.93;1.70;;;;;;;17.27;97.89;98029.63;5075047;28;20220;-74
2023/07/31 05:38:21;;;;;;;3.20;1.70;;;;;;;17.29;95.89;98022.13;5075254;28;20247;-74
2023/07/31 05:40:47;;;;;;;4.67;1.80;;;;;;;17.33;95.44;98025.09;5069052;28;20199;-74
2023/07/31 05:43:14;;;;;;;5.27;2.00;;;;;;;17.41;97.75;98019.25;5069507;28;20583;-74
2023/07/31 05:45:41;;;;;;;7.10;1.87;;;;;;;17.35;98.86;98015.72;5067927;28;20366;-74
2023/07/31 05:48:08;;;;;;;3.60;1.60;;;;;;;17.31;97.95;98020.00;5063019;28;20284;-74
2023/07/31 05:50:34;;;;;;;4.40;1.50;;;;;;;17.50;96.14;98013.09;5065708;28;20197;-73
2023/07/31 05:53:00;;;;;;;3.77;1.80;;;;;;;17.56;95.58;98017.41;5074844;28;20201;-74
2023/07/31 05:55:27;;;;;;;3.80;1.60;;;;;;;17.60;94.58;98007.75;5075248;28;20216;-74
2023/07/31 05:57:54;;;;;;;3.47;1.73;;;;;;;17.63;96.74;98004.53;5074712;28;20631;-74
2023/07/31 06:00:21;;;;;;;2.70;1.70;;;;;;;17.58;95.95;98003.72;5074589;28;20220;-74
2023/07/31 06:02:48;;;;;;;3.80;1.80;;;;;;;17.61;95.58;98014.75;5074375;28;20219;-74
2023/07/31 06:05:15;;;;;;;2.83;1.70;;;;;;;17.61;94.75;98011.25;5074738;28;20203;-74
2023/07/31 06:07:41;;;;;;;6.03;1.90;;;;;;;17.65;95.32;98015.81;5074568;28;20227;-74
2023/07/31 06:10:09;;;;;;;5.60;1.80;;;;;;;17.74;93.18;98011.56;5074586;28;20231;-74
2023/07/31 06:12:36;;;;;;;2.47;1.70;;;;;;;17.76;93.74;98022.88;5074478;28;20208;-74
2023/07/31 06:15:03;;;;;;;3.03;1.67;;;;;;;17.87;90.48;98012.94;5073422;28;20216;-73
2023/07/31 06:17:30;;;;;;;5.17;1.80;;;;;;;18.15;89.29;98009.75;5072222;28;20208;-74
2023/07/31 06:19:57;;;;;;;3.13;1.97;;;;;;;18.32;90.79;98013.78;5073527;28;20228;-73
2023/07/31 06:22:24;;;;;;;4.33;1.90;;;;;;;18.44;87.20;98003.59;5074350;28;20204;-74
2023/07/31 06:24:50;;;;;;;5.27;1.60;;;;;;;18.48;88.23;98006.53;5073837;28;20205;-74
2023/07/31 06:27:16;;;;;;;5.87;2.13;;;;;;;18.54;86.28;98011.66;5073583;28;20216;-74
2023/07/31 06:29:43;;;;;;;2.87;1.80;;;;;;;18.55;86.46;98009.78;5073393;28;20224;-74
2023/07/31 06:32:09;;;;;;;4.27;1.80;;;;;;;18.53;85.30;98010.06;5073903;28;20208;-74
2023/07/31 06:34:36;;;;;;;3.80;1.80;;;;;;;18.54;84.01;98014.34;5073337;28;20231;-74
2023/07/31 06:37:02;;;;;;;3.50;1.63;;;;;;;18.59;84.84;98008.97;5073756;28;20209;-74
2023/07/31 06:39:28;;;;;;;5.70;2.30;;;;;;;18.79;85.21;98014.34;5073836;28;20233;-74
2023/07/31 06:41:55;;;;;;;3.40;2.00;;;;;;;18.54;81.88;98017.03;5073632;28;20567;-74
2023/07/31 06:44:21;;;;;;;3.87;1.70;;;;;;;18.52;84.92;98019.22;5073920;28;20595;-74
2023/07/31 06:46:47;;;;;;;2.93;1.90;;;;;;;18.49;84.38;98017.06;5073890;28;20549;-74
2023/07/31 06:49:15;;;;;;;4.53;2.03;;;;;;;18.66;83.62;98012.19;5075254;28;20228;-79
2023/07/31 06:51:41;;;;;;;2.47;1.77;;;;;;;18.88;82.77;98019.97;5078274;28;20212;-79
2023/07/31 06:54:09;;;;;;;4.37;2.00;;;;;;;18.92;82.35;98013.75;5076663;28;20295;-78
2023/07/31 06:56:36;;;;;;;3.47;1.80;;;;;;;19.09;82.30;98021.53;5076020;28;20236;-78
2023/07/31 06:59:02;;;;;;;4.03;2.00;;;;;;;19.07;81.24;98024.50;5075283;28;20586;-78
2023/07/31 07:01:29;;;;;;;3.47;1.60;;;;;;;19.07;81.74;98024.50;5074904;28;20208;-77
2023/07/31 07:03:55;;;;;;;2.83;1.50;;;;;;;19.08;79.98;98028.00;5075495;28;20208;-78
2023/07/31 07:06:23;;;;;;;1.73;1.63;;;;;;;19.02;79.49;98021.00;5075037;28;20240;-77
2023/07/31 07:08:50;;;;;;;4.40;1.90;;;;;;;19.16;80.75;98022.88;5074750;28;20270;-78
2023/07/31 07:11:16;;;;;;;3.93;1.93;;;;;;;19.25;81.18;98012.34;5075636;28;20209;-78
2023/07/31 07:13:42;;;;;;;3.50;1.90;;;;;;;19.24;81.62;98010.75;5075472;28;20200;-78
2023/07/31 07:16:10;;;;;;;4.63;2.10;;;;;;;19.34;80.20;98016.91;5075519;28;20235;-77
2023/07/31 07:18:36;;;;;;;2.83;1.70;;;;;;;19.61;80.35;98019.22;5075444;28;20228;-78
2023/07/31 07:21:03;;;;;;;2.90;1.90;;;;;;;19.51;77.86;98020.03;5073985;28;20207;-77
2023/07/31 07:23:29;;;;;;;4.03;1.90;;;;;;;19.51;76.59;98011.97;5073763;28;20211;-73
2023/07/31 07:25:55;;;;;;;4.80;1.90;;;;;;;19.57;76.29;98007.34;5073348;28;20204;-73
2023/07/31 07:28:22;;;;;;;3.73;1.77;;;;;;;19.64;76.95;97997.09;5073048;28;20231;-73
2023/07/31 07:30:55;;;;;;;3.80;2.00;;;;;;;19.67;79.79;98000.03;5073494;28;20215;-73
2023/07/31 07:33:21;;;;;;;5.97;1.97;;;;;;;19.53;76.30;97996.31;5073399;28;20200;-73
2023/07/31 07:35:48;;;;;;;5.03;1.93;;;;;;;19.49;78.38;98003.34;5073201;28;20230;-73
2023/07/31 07:38:15;;;;;;;3.93;2.07;;;;;;;19.50;77.53;98002.25;5073186;28;20211;-73
2023/07/31 07:40:42;;;;;;;5.47;2.20;;;;;;;19.54;78.17;97997.94;5072553;28;20668;-73
2023/07/31 07:43:09;;;;;;;3.73;1.90;;;;;;;19.68;77.17;97998.16;5073104;28;20212;-73
2023/07/31 07:45:35;;;;;;;4.83;2.00;;;;;;;19.57;77.39;97998.47;5073150;28;20212;-73
2023/07/31 07:48:01;;;;;;;3.20;2.00;;;;;;;19.53;75.64;97990.09;5072784;28;20215;-73
2023/07/31 07:50:27;;;;;;;3.47;2.00;;;;;;;19.55;75.06;97986.06;5073271;28;20245;-73
2023/07/31 07:52:54;;;;;;;2.93;2.00;;;;;;;19.86;76.81;98000.19;5073281;28;20200;-73
2023/07/31 07:55:20;;;;;;;3.50;2.10;;;;;;;19.96;75.80;97985.81;5072777;28;20221;-73
2023/07/31 07:57:47;;;;;;;2.33;1.70;;;;;;;19.83;75.27;97992.66;5072838;28;20211;-73
2023/07/31 08:00:14;;;;;;;4.53;1.90;;;;;;;19.90;76.66;97997.75;5072878;28;20220;-73
2023/07/31 08:02:40;;;;;;;2.67;2.00;;;;;;;19.94;77.31;97993.41;5072664;28;20212;-73
2023/07/31 08:05:07;;;;;;;3.87;2.07;;;;;;;20.20;76.22;98002.94;5073429;28;20201;-73
2023/07/31 08:07:33;;;;;;;3.67;2.10;;;;;;;19.96;72.15;97989.34;5072944;28;20204;-73
2023/07/31 08:09:59;;;;;;;4.67;1.90;;;;;;;19.88;73.44;97981.81;5072673;28;20235;-73
2023/07/31 08:12:26;;;;;;;4.23;2.33;;;;;;;19.85;73.86;97985.06;5072720;28;20201;-73
2023/07/31 08:14:52;;;;;;;4.37;1.90;;;;;;;20.00;74.05;97989.56;5072814;28;20205;-73
2023/07/31 08:17:19;;;;;;;3.47;2.17;;;;;;;20.25;75.02;97979.41;5072786;28;20236;-73
2023/07/31 08:19:46;;;;;;;3.90;2.10;;;;;;;20.23;72.62;97988.88;5072637;28;20228;-73
2023/07/31 08:22:12;;;;;;;4.43;2.30;;;;;;;20.29;74.22;97980.47;5072928;28;20240;-73
2023/07/31 08:24:39;;;;;;;4.23;2.00;;;;;;;20.41;73.81;97974.69;5072945;28;20205;-73
2023/07/31 08:27:07;;;;;;;3.00;2.20;;;;;;;20.59;72.27;97984.81;5072399;28;20217;-74
2023/07/31 08:29:33;;;;;;;2.43;2.10;;;;;;;20.73;70.26;97983.03;5072650;28;20221;-73
2023/07/31 08:31:59;;;;;;;3.40;2.10;;;;;;;21.04;71.89;97973.56;5072900;28;20211;-73
2023/07/31 08:34:26;;;;;;;5.23;2.37;;;;;;;21.00;70.05;97970.63;5073029;28;20211;-73
2023/07/31 08:36:52;;;;;;;4.07;2.20;;;;;;;21.01;69.59;97969.53;5072621;28;20568;-73
2023/07/31 08:39:19;;;;;;;5.40;2.50;;;;;;;21.12;68.68;97970.22;5072169;28;20612;-73
2023/07/31 08:41:45;;;;;;;3.67;2.47;;;;;;;21.17;66.65;97962.06;5072516;28;20663;-73
2023/07/31 08:44:13;;;;;;;3.60;2.20;;;;;;;20.95;69.24;97961.75;5072601;28;20215;-73
2023/07/31 08:46:41;;;;;;;5.80;2.33;;;;;;;21.15;68.94;97959.63;5072671;28;20213;-73
2023/07/31 08:49:08;;;;;;;4.17;2.23;;;;;;;20.96;71.22;97957.97;5072439;28;20221;-73
2023/07/31 08:51:36;;;;;;;4.97;2.07;;;;;;;20.93;69.84;97955.84;5073391;28;20226;-73
2023/07/31 08:54:03;;;;;;;5.07;2.20;;;;;;;20.96;69.60;97966.06;5075545;28;20671;-73
2023/07/31 08:56:30;;;;;;;6.40;2.40;;;;;;;20.89;68.82;97958.28;5075467;28;20220;-73
2023/07/31 08:58:59;;;;;;;6.17;2.83;;;;;;;20.83;67.93;97961.31;5074322;28;20224;-73
2023/07/31 09:01:26;;;;;;;3.63;2.30;;;;;;;21.10;68.16;97957.00;5075804;28;20210;-73
2023/07/31 09:03:53;;;;;;;4.90;2.17;;;;;;;21.15;67.42;97954.22;5076333;28;20204;-72
2023/07/31 09:06:22;;;;;;;4.27;2.50;;;;;;;21.25;69.89;97947.91;5076204;28;20196;-73
2023/07/31 09:08:50;;;;;;;3.97;2.10;;;;;;;21.24;68.51;97941.69;5074204;28;20244;-73
2023/07/31 09:11:17;;;;;;;3.17;2.07;;;;;;;21.23;67.83;97940.06;5075648;28;20211;-73
2023/07/31 09:13:44;;;;;;;4.30;2.10;;;;;;;21.51;68.63;97941.84;5075334;28;20208;-73
2023/07/31 09:16:10;;;;;;;3.63;2.00;;;;;;;21.52;67.24;97931.84;5075400;28;20231;-73
2023/07/31 09:18:54;;;;;;;4.50;2.40;;;;;;;21.67;69.78;97945.16;5075193;28;20224;-73
2023/07/31 09:21:21;;;;;;;4.53;2.13;;;;;;;21.39;66.21;97946.09;5075098;28;20662;-72
2023/07/31 09:23:48;;;;;;;5.77;2.33;;;;;;;21.53;68.40;97941.56;5075001;28;20273;-74
2023/07/31 09:26:35;;;;;;;5.43;2.67;;;;;;;21.24;66.23;97951.69;5075212;28;20204;-72
2023/07/31 09:29:02;;;;;;;4.80;2.53;;;;;;;21.10;68.42;97953.47;5075177;28;20228;-73
2023/07/31 09:31:42;;;;;;;4.97;2.43;;;;;;;21.03;67.63;97944.94;5074815;28;20705;-73
2023/07/31 09:34:10;;;;;;;4.97;2.30;;;;;;;21.16;67.89;97949.63;5075096;28;20204;-73
2023/07/31 09:36:45;;;;;;;4.07;2.00;;;;;;;20.70;68.94;97940.41;5074772;28;20227;-72
2023/07/31 09:39:12;;;;;;;3.90;2.57;;;;;;;20.85;71.98;97932.91;5074786;28;20228;-73
2023/07/31 09:41:45;;;;;;;4.27;2.27;;;;;;;21.02;69.59;97932.50;5075248;28;20204;-73
2023/07/31 09:44:12;;;;;;;4.33;2.23;;;;;;;21.13;68.90;97920.47;5074771;28;20528;-73
2023/07/31 09:46:38;;;;;;;4.90;2.23;;;;;;;21.23;70.80;97923.03;5074850;28;20204;-73
2023/07/31 09:49:10;;;;;;;5.40;2.60;;;;;;;21.38;69.89;97910.13;5074659;28;20293;-73
2023/07/31 09:51:40;;;;;;;2.63;2.10;;;;;;;21.65;67.71;97914.88;5074757;28;20197;-73
2023/07/31 09:54:15;;;;;;;3.25;2.03;;;;;;;21.82;68.64;97901.66;5074853;28;20220;-73
2023/07/31 09:56:48;;;;;;;2.85;2.13;;;;;;;22.25;68.77;97884.19;5074628;28;20212;-75
2023/07/31 09:59:17;;;;;;;5.13;2.50;;;;;;;22.40;64.79;97889.31;5074656;28;20290;-73
2023/07/31 10:01:46;;;;;;;3.30;2.25;;;;;;;21.96;64.39;97897.09;5074621;28;20211;-73
2023/07/31 10:04:13;;;;;;;5.35;2.70;;;;;;;21.82;64.28;97894.34;5074092;28;20575;-73
2023/07/31 10:06:41;;;;;;;6.85;2.67;;;;;;;21.79;65.28;97886.81;5074658;28;20306;-73
2023/07/31 10:09:14;;;;;;;4.40;2.45;;;;;;;21.93;65.82;97882.25;5074070;28;20734;-73
2023/07/31 10:11:50;;;;;;;4.03;2.33;;;;;;;22.09;65.44;97877.41;5074187;28;20565;-73
2023/07/31 10:14:20;;;;;;;5.57;2.50;;;;;;;22.13;64.42;97884.66;5074217;28;20239;-73
2023/07/31 10:16:48;;;;;;;3.25;2.28;;;;;;;22.12;65.33;97874.09;5073929;28;20230;-73
2023/07/31 10:19:15;;;;;;;9.38;2.55;;;;;;;21.84;64.75;97880.53;5074318;28;20224;-73
2023/07/31 10:21:43;;;;;;;4.13;2.20;;;;;;;21.65;65.23;97882.41;5074376;28;20200;-73
2023/07/31 10:24:09;;;;;;;5.35;2.38;;;;;;;21.68;65.54;97876.41;5073929;28;20713;-73
2023/07/31 10:26:38;;;;;;;5.90;2.83;;;;;;;21.60;65.02;97877.06;5073830;28;20566;-73
2023/07/31 10:29:06;;;;;;;6.30;2.50;;;;;;;21.64;65.02;97867.28;5073829;28;20227;-73
2023/07/31 10:31:34;;;;;;;4.72;2.40;;;;;;;21.62;66.27;97861.38;5074193;28;20210;-73
2023/07/31 10:34:02;;;;;;;4.00;2.40;;;;;;;21.64;67.11;97861.88;5074021;28;20208;-73
2023/07/31 10:36:29;;;;;;;4.60;2.30;;;;;;;21.94;66.11;97864.13;5074026;28;20232;-74
2023/07/31 10:38:57;;;;;;;4.25;2.60;;;;;;;22.49;62.75;97853.16;5074066;28;20228;-73
2023/07/31 10:41:32;;;;;;;3.30;2.53;;;;;;;22.53;63.01;97854.16;5073847;28;20208;-73
2023/07/31 10:44:01;;;;;;;5.75;2.50;;;;;;;22.26;62.22;97851.38;5073803;28;20667;-73
2023/07/31 10:46:31;;;;;;;4.95;2.42;;;;;;;22.13;63.08;97862.97;5073768;28;20203;-73
2023/07/31 10:49:02;;;;;;;5.15;2.60;;;;;;;22.21;65.84;97850.66;5073497;28;20221;-74
2023/07/31 10:51:36;;;;;;;3.67;2.30;;;;;;;22.32;64.05;97857.50;5073832;28;20208;-73
2023/07/31 10:54:14;;;;;;;5.00;2.47;;;;;;;22.74;61.72;97857.28;5073862;28;20210;-73
2023/07/31 10:56:40;;;;;;;4.07;2.65;;;;;;;22.60;59.73;97856.44;5073638;28;20226;-73
2023/07/31 10:59:07;;;;;;;6.38;2.45;;;;;;;22.83;60.29;97860.88;5073589;28;20224;-73
2023/07/31 11:01:53;;;;;;;5.03;2.67;;;;;;;22.93;60.06;97845.19;5073793;28;20235;-74
2023/07/31 11:04:27;;;;;;;4.80;2.67;;;;;;;22.86;60.29;97833.16;5073700;28;20203;-74
2023/07/31 11:07:02;;;;;;;4.45;2.58;;;;;;;22.50;60.53;97835.78;5073579;28;20292;-73
2023/07/31 11:09:34;;;;;;;4.20;2.72;;;;;;;22.33;61.00;97832.81;5073189;28;20228;-73
2023/07/31 11:12:01;;;;;;;3.72;2.60;;;;;;;22.37;61.94;97825.69;5074083;28;20204;-78
2023/07/31 11:14:27;;;;;;;4.57;2.53;;;;;;;22.35;64.29;97843.34;5073665;28;20214;-77
2023/07/31 11:16:53;;;;;;;4.75;2.80;;;;;;;22.46;62.68;97839.38;5074636;28;20225;-78
2023/07/31 11:19:26;;;;;;;3.33;2.50;;;;;;;22.31;63.05;97837.75;5074119;28;20232;-78
2023/07/31 11:21:53;;;;;;;2.97;2.65;;;;;;;22.10;61.92;97841.09;5073520;28;20646;-77
2023/07/31 11:24:20;;;;;;;3.58;2.60;;;;;;;21.98;62.19;97835.38;5074524;28;20216;-77
2023/07/31 11:26:52;;;;;;;5.45;2.50;;;;;;;22.11;64.21;97832.69;5073389;28;20212;-78
2023/07/31 11:29:19;;;;;;;4.97;2.50;;;;;;;22.30;62.53;97830.69;5074545;28;20224;-77
2023/07/31 11:31:47;;;;;;;3.58;2.67;;;;;;;22.36;62.14;97828.69;5073656;28;20613;-77
2023/07/31 11:34:13;;;;;;;3.78;2.60;;;;;;;22.57;63.48;97840.81;5074377;28;20208;-77